Terminal Aerodrome Forecast
Issued by NWS

Home | Current Version | Previous Version | Graphics & Text | Print | Product List | Glossary On
Versions: 1 2 3 4 5 6 7 8 9 10 11 12 13 14 15 16 17 18 19 20 21
000
FTUS43 KMPX 142321
TAFRWF
TAF
KRWF 142321Z 1500/1524 17010KT 1SM BR OVC003
      TEMPO 1500/1502 3/4SM -DZ BR
     FM150300 24006KT 2SM BR OVC009
     FM150700 30011KT 4SM BR OVC015
     FM151000 31012G20KT P6SM BKN015
     FM151400 31015G23KT P6SM SCT020=

USA.gov is the U.S. government's official web portal to all federal, state and local government web resources and services.